Lyndon, Ohio
Current Conditions -  °F | °C
As of 11:34 AM on Saturday 25 Oct 2014 (Local Time) from KRZT Reporting Station
Overcast Overcast  
Wind Chill: 59°   Ceiling: 4800
Heat Index: 59°   Visibility: 10mi
Dew Point: 50°   Wind: 8mph
Humidity: 72%   Direction: 240°WSW
Pressure: 29.97"   Gusts: NA
Location:  39.3076°N, 83.2481°W
Report Text: KRZT 251534Z AUTO 24007KT 10SM OVC048 15/10 A2997 RMK AO2
Loading
Personal Weather Stations






























Interactive Weather Map
Tropical Storm Tracking
New forecast layout! Learn more

10-Day Weather Forecast

Advertisements
Track Severe Weather on mobile